Time,TemperatureF,DewpointF,PressureIn,WindDirection,WindDirectionDegrees,WindSpeedMPH,WindSpeedGustMPH,Humidity,HourlyPrecipIn,Conditions,Clouds,dailyrainin,SolarRadiationWatts/m^2,SoftwareType,DateUTC
2013-02-05 00:02:00,15.0,13.0,-100.00,South,173,15.0,19.0,90,0.00,,,0.00,0.000000,,2013-02-05 06:02:00,
2013-02-05 00:11:00,17.0,15.0,-100.00,South,182,14.0,20.0,90,0.00,,,0.00,0.000000,,2013-02-05 06:11:00,
2013-02-05 00:32:00,17.0,15.0,-100.00,South,182,14.0,20.0,90,0.00,,,0.00,0.000000,,2013-02-05 06:32:00,
2013-02-05 00:42:00,17.0,15.0,-100.00,South,182,14.0,20.0,90,0.00,,,0.00,0.000000,,2013-02-05 06:42:00,
2013-02-05 00:52:00,17.0,15.0,-100.00,South,182,14.0,20.0,90,0.00,,,0.00,0.000000,,2013-02-05 06:52:00,
2013-02-05 01:01:00,17.0,15.0,-100.00,South,182,14.0,20.0,90,0.00,,,0.00,0.000000,,2013-02-05 07:01:00,
2013-02-05 01:11:00,17.0,15.0,-100.00,SSW,192,11.0,16.0,90,0.00,,,0.00,0.000000,,2013-02-05 07:11:00,
2013-02-05 01:32:00,17.0,15.0,-100.00,SSW,192,11.0,16.0,90,0.00,,,0.00,0.000000,,2013-02-05 07:32:00,
2013-02-05 01:42:00,17.0,15.0,-100.00,SSW,192,11.0,16.0,90,0.00,,,0.00,0.000000,,2013-02-05 07:42:00,
2013-02-05 01:52:00,17.0,15.0,-100.00,SSW,192,11.0,16.0,90,0.00,,,0.00,0.000000,,2013-02-05 07:52:00,
2013-02-05 02:01:00,17.0,15.0,-100.00,SSW,192,11.0,16.0,90,0.00,,,0.00,0.000000,,2013-02-05 08:01:00,
2013-02-05 02:11:00,18.0,16.0,-100.00,SSW,192,11.0,16.0,90,0.00,,,0.00,0.000000,,2013-02-05 08:11:00,
2013-02-05 02:42:00,18.0,16.0,-100.00,SSW,192,11.0,16.0,90,0.00,,,0.00,0.000000,,2013-02-05 08:42:00,
2013-02-05 02:52:00,18.0,16.0,-100.00,SSW,192,11.0,16.0,90,0.00,,,0.00,0.000000,,2013-02-05 08:52:00,
2013-02-05 03:02:00,18.0,16.0,-100.00,SSW,192,11.0,16.0,90,0.00,,,0.00,0.000000,,2013-02-05 09:02:00,
2013-02-05 03:11:00,20.0,17.0,-100.00,SSW,212,7.0,16.0,89,0.00,,,0.00,0.000000,,2013-02-05 09:11:00,
2013-02-05 03:42:00,20.0,17.0,-100.00,SSW,212,7.0,16.0,89,0.00,,,0.00,0.000000,,2013-02-05 09:42:00,
2013-02-05 03:52:00,20.0,17.0,-100.00,SSW,212,7.0,16.0,89,0.00,,,0.00,0.000000,,2013-02-05 09:52:00,
2013-02-05 04:02:00,20.0,17.0,-100.00,SSW,212,7.0,16.0,89,0.00,,,0.00,0.000000,,2013-02-05 10:02:00,
2013-02-05 04:11:00,22.0,20.0,-100.00,SW,234,9.0,15.0,91,0.00,,,-99.99,0.000000,,2013-02-05 10:11:00,
2013-02-05 04:32:00,22.0,20.0,-100.00,SW,234,9.0,15.0,91,0.00,,,-99.99,0.000000,,2013-02-05 10:32:00,
2013-02-05 04:42:00,22.0,20.0,-100.00,SW,234,9.0,15.0,91,0.00,,,-99.99,0.000000,,2013-02-05 10:42:00,
2013-02-05 04:52:00,22.0,20.0,-100.00,SW,234,9.0,15.0,91,0.00,,,-99.99,0.000000,,2013-02-05 10:52:00,
2013-02-05 05:01:00,22.0,20.0,-100.00,SW,234,9.0,15.0,91,0.00,,,-99.99,0.000000,,2013-02-05 11:01:00,
2013-02-05 05:11:00,25.0,25.0,-100.00,West,260,9.0,11.0,98,0.00,,,0.00,0.000000,,2013-02-05 11:11:00,
2013-02-05 05:32:00,25.0,25.0,-100.00,West,260,9.0,11.0,98,0.00,,,0.00,0.000000,,2013-02-05 11:32:00,
2013-02-05 05:42:00,25.0,25.0,-100.00,West,260,9.0,11.0,98,0.00,,,0.00,0.000000,,2013-02-05 11:42:00,
2013-02-05 05:52:00,25.0,25.0,-100.00,West,260,9.0,11.0,98,0.00,,,0.00,0.000000,,2013-02-05 11:52:00,
2013-02-05 06:01:00,25.0,25.0,-100.00,West,260,9.0,11.0,98,0.00,,,0.00,0.000000,,2013-02-05 12:01:00,
2013-02-05 06:11:00,28.0,28.0,-100.00,WNW,294,14.0,18.0,98,0.00,,,0.00,0.000000,,2013-02-05 12:11:00,
2013-02-05 06:32:00,28.0,28.0,-100.00,WNW,294,14.0,18.0,98,0.00,,,0.00,0.000000,,2013-02-05 12:32:00,
2013-02-05 06:42:00,28.0,28.0,-100.00,WNW,294,14.0,18.0,98,0.00,,,0.00,0.000000,,2013-02-05 12:42:00,
2013-02-05 06:52:00,28.0,28.0,-100.00,WNW,294,14.0,18.0,98,0.00,,,0.00,0.000000,,2013-02-05 12:52:00,
2013-02-05 07:01:00,28.0,28.0,-100.00,WNW,294,14.0,18.0,98,0.00,,,0.00,0.000000,,2013-02-05 13:01:00,
2013-02-05 07:11:00,29.0,27.0,-100.00,WNW,292,12.0,19.0,94,0.00,,,0.00,0.000000,,2013-02-05 13:11:00,
2013-02-05 07:32:00,29.0,27.0,-100.00,WNW,292,12.0,19.0,94,0.00,,,0.00,0.000000,,2013-02-05 13:32:00,
2013-02-05 07:42:00,29.0,27.0,-100.00,WNW,292,12.0,19.0,94,0.00,,,0.00,0.000000,,2013-02-05 13:42:00,
2013-02-05 07:52:00,29.0,27.0,-100.00,WNW,292,12.0,19.0,94,0.00,,,0.00,0.000000,,2013-02-05 13:52:00,
2013-02-05 08:01:00,29.0,27.0,-100.00,WNW,292,12.0,19.0,94,0.00,,,0.00,0.000000,,2013-02-05 14:01:00,
2013-02-05 08:11:00,28.0,25.0,-100.00,WNW,294,13.0,22.0,88,0.00,,,0.00,11.000000,,2013-02-05 14:11:00,
2013-02-05 08:42:00,28.0,25.0,-100.00,WNW,294,13.0,22.0,88,0.00,,,0.00,11.000000,,2013-02-05 14:42:00,
2013-02-05 08:52:00,28.0,25.0,-100.00,WNW,294,13.0,22.0,88,0.00,,,0.00,11.000000,,2013-02-05 14:52:00,
2013-02-05 09:02:00,28.0,25.0,-100.00,WNW,294,13.0,22.0,88,0.00,,,0.00,11.000000,,2013-02-05 15:02:00,
2013-02-05 09:11:00,28.0,25.0,-100.00,NW,312,16.0,21.0,87,0.00,,,0.00,123.000000,,2013-02-05 15:11:00,
2013-02-05 09:32:00,28.0,25.0,-100.00,NW,312,16.0,21.0,87,0.00,,,0.00,123.000000,,2013-02-05 15:32:00,
2013-02-05 09:42:00,28.0,25.0,-100.00,NW,312,16.0,21.0,87,0.00,,,0.00,123.000000,,2013-02-05 15:42:00,
2013-02-05 09:52:00,28.0,25.0,-100.00,NW,312,16.0,21.0,87,0.00,,,0.00,123.000000,,2013-02-05 15:52:00,
2013-02-05 10:01:00,28.0,25.0,-100.00,NW,312,16.0,21.0,87,0.00,,,0.00,123.000000,,2013-02-05 16:01:00,
2013-02-05 10:11:00,27.0,20.0,-100.00,NW,312,19.0,26.0,75,0.01,,,-99.99,306.000000,,2013-02-05 16:11:00,
2013-02-05 10:33:00,27.0,20.0,-100.00,NW,312,19.0,26.0,75,0.01,,,-99.99,306.000000,,2013-02-05 16:33:00,
2013-02-05 10:42:00,27.0,20.0,-100.00,NW,312,19.0,26.0,75,0.01,,,-99.99,306.000000,,2013-02-05 16:42:00,
2013-02-05 10:52:00,27.0,20.0,-100.00,NW,312,19.0,26.0,75,0.01,,,-99.99,306.000000,,2013-02-05 16:52:00,
2013-02-05 11:01:00,27.0,20.0,-100.00,NW,312,19.0,26.0,75,0.01,,,-99.99,306.000000,,2013-02-05 17:01:00,
2013-02-05 11:11:00,25.0,18.0,-100.00,NNW,334,14.0,25.0,73,0.00,,,0.01,479.000000,,2013-02-05 17:11:00,
2013-02-05 11:33:00,25.0,18.0,-100.00,NNW,334,14.0,25.0,73,0.00,,,0.01,479.000000,,2013-02-05 17:33:00,
2013-02-05 11:42:00,25.0,18.0,-100.00,NNW,334,14.0,25.0,73,0.00,,,0.01,479.000000,,2013-02-05 17:42:00,
2013-02-05 11:52:00,25.0,18.0,-100.00,NNW,334,14.0,25.0,73,0.00,,,0.01,479.000000,,2013-02-05 17:52:00,
2013-02-05 12:02:00,25.0,18.0,-100.00,NNW,334,14.0,25.0,73,0.00,,,0.01,479.000000,,2013-02-05 18:02:00,
2013-02-05 12:11:00,23.0,17.0,-100.00,NW,310,15.0,19.0,79,0.00,,,0.01,423.000000,,2013-02-05 18:11:00,
2013-02-05 12:32:00,23.0,17.0,-100.00,NW,310,15.0,19.0,79,0.00,,,0.01,423.000000,,2013-02-05 18:32:00,
2013-02-05 12:42:00,23.0,17.0,-100.00,NW,310,15.0,19.0,79,0.00,,,0.01,423.000000,,2013-02-05 18:42:00,
2013-02-05 12:52:00,23.0,17.0,-100.00,NW,310,15.0,19.0,79,0.00,,,0.01,423.000000,,2013-02-05 18:52:00,
2013-02-05 13:02:00,23.0,17.0,-100.00,NW,310,15.0,19.0,79,0.00,,,0.01,423.000000,,2013-02-05 19:02:00,
2013-02-05 13:11:00,23.0,17.0,-100.00,NW,312,14.0,20.0,78,0.00,,,0.01,361.000000,,2013-02-05 19:11:00,
2013-02-05 13:42:00,23.0,17.0,-100.00,NW,312,14.0,20.0,78,0.00,,,0.01,361.000000,,2013-02-05 19:42:00,
2013-02-05 13:52:00,23.0,17.0,-100.00,NW,312,14.0,20.0,78,0.00,,,0.01,361.000000,,2013-02-05 19:52:00,
2013-02-05 14:01:00,23.0,17.0,-100.00,NW,312,14.0,20.0,78,0.00,,,0.01,361.000000,,2013-02-05 20:01:00,
2013-02-05 14:11:00,22.0,15.0,-100.00,WNW,303,14.0,20.0,75,0.00,,,-99.99,360.000000,,2013-02-05 20:11:00,
2013-02-05 14:32:00,22.0,15.0,-100.00,WNW,303,14.0,20.0,75,0.00,,,-99.99,360.000000,,2013-02-05 20:32:00,
2013-02-05 14:42:00,22.0,15.0,-100.00,WNW,303,14.0,20.0,75,0.00,,,-99.99,360.000000,,2013-02-05 20:42:00,
2013-02-05 14:52:00,22.0,15.0,-100.00,WNW,303,14.0,20.0,75,0.00,,,-99.99,360.000000,,2013-02-05 20:52:00,
2013-02-05 15:02:00,22.0,15.0,-100.00,WNW,303,14.0,20.0,75,0.00,,,-99.99,360.000000,,2013-02-05 21:02:00,
2013-02-05 15:11:00,22.0,13.0,-100.00,WNW,282,12.0,19.0,69,0.00,,,0.01,337.000000,,2013-02-05 21:11:00,
2013-02-05 15:42:00,22.0,13.0,-100.00,WNW,282,12.0,19.0,69,0.00,,,0.01,337.000000,,2013-02-05 21:42:00,
2013-02-05 15:52:00,22.0,13.0,-100.00,WNW,282,12.0,19.0,69,0.00,,,0.01,337.000000,,2013-02-05 21:52:00,
2013-02-05 16:01:00,22.0,13.0,-100.00,WNW,282,12.0,19.0,69,0.00,,,0.01,337.000000,,2013-02-05 22:01:00,
2013-02-05 16:11:00,21.0,12.0,-100.00,NW,309,9.0,16.0,69,0.00,,,0.01,254.000000,,2013-02-05 22:11:00,
2013-02-05 16:32:00,21.0,12.0,-100.00,NW,309,9.0,16.0,69,0.00,,,0.01,254.000000,,2013-02-05 22:32:00,
2013-02-05 16:42:00,21.0,12.0,-100.00,NW,309,9.0,16.0,69,0.00,,,0.01,254.000000,,2013-02-05 22:42:00,
2013-02-05 16:52:00,21.0,12.0,-100.00,NW,309,9.0,16.0,69,0.00,,,0.01,254.000000,,2013-02-05 22:52:00,
2013-02-05 17:02:00,21.0,12.0,-100.00,NW,309,9.0,16.0,69,0.00,,,0.01,254.000000,,2013-02-05 23:02:00,
2013-02-05 17:11:00,16.0,9.0,-100.00,West,267,9.0,15.0,74,0.00,,,0.01,83.000000,,2013-02-05 23:11:00,
2013-02-05 17:33:00,16.0,9.0,-100.00,West,267,9.0,15.0,74,0.00,,,0.01,83.000000,,2013-02-05 23:33:00,
2013-02-05 17:42:00,16.0,9.0,-100.00,West,267,9.0,15.0,74,0.00,,,0.01,83.000000,,2013-02-05 23:42:00,
2013-02-05 17:53:00,16.0,9.0,-100.00,West,267,9.0,15.0,74,0.00,,,0.01,83.000000,,2013-02-05 23:53:00,
2013-02-05 18:02:00,16.0,9.0,-100.00,West,267,9.0,15.0,74,0.00,,,0.01,83.000000,,2013-02-06 00:02:00,
2013-02-05 18:11:00,11.0,5.0,-100.00,West,273,10.0,12.0,77,0.00,,,0.01,5.000000,,2013-02-06 00:11:00,
2013-02-05 18:32:00,11.0,5.0,-100.00,West,273,10.0,12.0,77,0.00,,,0.01,5.000000,,2013-02-06 00:32:00,
2013-02-05 18:42:00,11.0,5.0,-100.00,West,273,10.0,12.0,77,0.00,,,0.01,5.000000,,2013-02-06 00:42:00,
2013-02-05 18:52:00,11.0,5.0,-100.00,West,273,10.0,12.0,77,0.00,,,0.01,5.000000,,2013-02-06 00:52:00,
2013-02-05 19:02:00,11.0,5.0,-100.00,West,273,10.0,12.0,77,0.00,,,0.01,5.000000,,2013-02-06 01:02:00,
2013-02-05 19:11:00,8.0,3.0,-100.00,WNW,302,7.0,12.0,78,0.00,,,0.01,0.000000,,2013-02-06 01:11:00,
2013-02-05 19:33:00,8.0,3.0,-100.00,WNW,302,7.0,12.0,78,0.00,,,0.01,0.000000,,2013-02-06 01:33:00,
2013-02-05 19:42:00,8.0,3.0,-100.00,WNW,302,7.0,12.0,78,0.00,,,0.01,0.000000,,2013-02-06 01:42:00,
2013-02-05 19:53:00,8.0,3.0,-100.00,WNW,302,7.0,12.0,78,0.00,,,0.01,0.000000,,2013-02-06 01:53:00,
2013-02-05 20:01:00,8.0,3.0,-100.00,WNW,302,7.0,12.0,78,0.00,,,0.01,0.000000,,2013-02-06 02:01:00,
2013-02-05 20:11:00,6.0,1.0,-100.00,West,277,7.0,9.0,80,0.00,,,0.01,0.000000,,2013-02-06 02:11:00,
2013-02-05 20:42:00,6.0,1.0,-100.00,West,277,7.0,9.0,80,0.00,,,0.01,0.000000,,2013-02-06 02:42:00,
2013-02-05 20:52:00,6.0,1.0,-100.00,West,277,7.0,9.0,80,0.00,,,0.01,0.000000,,2013-02-06 02:52:00,
2013-02-05 21:02:00,6.0,1.0,-100.00,West,277,7.0,9.0,80,0.00,,,0.01,0.000000,,2013-02-06 03:02:00,
2013-02-05 21:11:00,6.0,1.0,-100.00,West,276,6.0,6.0,80,0.00,,,0.01,0.000000,,2013-02-06 03:11:00,
2013-02-05 21:33:00,6.0,1.0,-100.00,West,276,6.0,6.0,80,0.00,,,0.01,0.000000,,2013-02-06 03:33:00,
2013-02-05 21:42:00,6.0,1.0,-100.00,West,276,6.0,6.0,80,0.00,,,0.01,0.000000,,2013-02-06 03:42:00,
2013-02-05 21:53:00,6.0,1.0,-100.00,West,276,6.0,6.0,80,0.00,,,0.01,0.000000,,2013-02-06 03:53:00,
2013-02-05 22:02:00,6.0,1.0,-100.00,West,276,6.0,6.0,80,0.00,,,0.01,0.000000,,2013-02-06 04:02:00,
2013-02-05 22:11:00,3.0,-1.0,-100.00,SW,222,0.0,6.0,81,0.00,,,0.01,0.000000,,2013-02-06 04:11:00,
2013-02-05 22:42:00,3.0,-1.0,-100.00,SW,222,0.0,6.0,81,0.00,,,0.01,0.000000,,2013-02-06 04:42:00,
2013-02-05 22:52:00,3.0,-1.0,-100.00,SW,222,0.0,6.0,81,0.00,,,0.01,0.000000,,2013-02-06 04:52:00,
2013-02-05 23:02:00,3.0,-1.0,-100.00,SW,222,0.0,6.0,81,0.00,,,0.01,0.000000,,2013-02-06 05:02:00,
2013-02-05 23:11:00,4.0,1.0,-100.00,SW,227,3.0,6.0,85,0.00,,,0.01,0.000000,,2013-02-06 05:11:00,
2013-02-05 23:42:00,4.0,1.0,-100.00,SW,227,3.0,6.0,85,0.00,,,0.01,0.000000,,2013-02-06 05:42:00,
2013-02-05 23:53:00,4.0,1.0,-100.00,SW,227,3.0,6.0,85,0.00,,,0.01,0.000000,,2013-02-06 05:53:00,